YLAM weather

Lambina Airport
South Australia, Australia

Public forecast

Using degrees Celsius for public forecast. Weather courtesy of forecast.io.

Closest aviation weather report (METAR) to Lambina Airport

Closest report is Ayers Rock Connellan Airport, 195.9 nm (362.9 km) WNW. Retrieved 2020/02/21 10:00 UTC (12 minutes ago):

YAYE 211000Z AUTO 12009KT 9999 // NCD 35/02 Q1013

Closest aviation forecast (TAF) to Lambina Airport

Closest forecast is Alice Springs Airport, 186.7 nm (345.8 km) N. Retrieved 2020/02/21 06:00 UTC (4 hours ago):

TAF YBAS 210518Z 2106/2206 13014KT CAVOK FM211000 13008KT CAVOK FM212200 13014KT CAVOK